Time;durP1;ratioP1;P1;durP2;ratioP2;P2;SDS_P1;SDS_P2;PMS_P1;PMS_P2;Temp;Humidity;BMP_temperature;BMP_pressure;BME280_temperature;BME280_humidity;BME280_pressure;Samples;Min_cycle;Max_cycle;Signal;HPM_P1;HPM_P2
2024/03/15 00:00:53;;;;;;;26.20;13.85;;;;;;;;;;6165050;28;20042;-82
2024/03/15 00:03:55;;;;;;;30.02;16.25;;;;;;;;;;6160093;28;20050;-82
2024/03/15 00:06:59;;;;;;;29.20;14.75;;;;;;;;;;6162637;28;20875;-81
2024/03/15 00:10:01;;;;;;;22.83;12.43;;;;;;;;;;6155543;28;20727;-81
2024/03/15 00:13:04;;;;;;;23.73;13.10;;;;;;;;;;6163269;28;20054;-81
2024/03/15 00:16:07;;;;;;;21.80;12.77;;;;;;;;;;6162481;28;20057;-81
2024/03/15 00:19:09;;;;;;;22.83;13.95;;;;;;;;;;6173845;28;20046;-81
2024/03/15 00:22:11;;;;;;;23.38;11.93;;;;;;;;;;6160095;28;20053;-81
2024/03/15 00:25:14;;;;;;;20.13;12.10;;;;;;;;;;6173944;28;20116;-81
2024/03/15 00:28:18;;;;;;;22.63;13.32;;;;;;;;;;6160021;28;20128;-82
2024/03/15 00:31:20;;;;;;;24.50;13.82;;;;;;;;;;6163843;28;20531;-82
2024/03/15 00:34:24;;;;;;;25.42;13.85;;;;;;;;;;6162408;28;20050;-82
2024/03/15 00:37:27;;;;;;;24.00;15.00;;;;;;;;;;6143351;28;20039;-82
2024/03/15 00:40:30;;;;;;;25.35;14.73;;;;;;;;;;6164830;28;20433;-82
2024/03/15 00:43:32;;;;;;;27.33;15.57;;;;;;;;;;6159040;28;20050;-82
2024/03/15 00:46:37;;;;;;;26.90;14.73;;;;;;;;;;6161095;28;20126;-82
2024/03/15 00:49:39;;;;;;;26.52;14.63;;;;;;;;;;6159955;28;20496;-82
2024/03/15 00:52:42;;;;;;;23.55;14.80;;;;;;;;;;6161913;28;20066;-81
2024/03/15 00:55:44;;;;;;;18.33;12.48;;;;;;;;;;6173830;28;20046;-81
2024/03/15 00:58:50;;;;;;;23.52;13.63;;;;;;;;;;6189051;28;20051;-81
2024/03/15 01:01:52;;;;;;;23.83;13.25;;;;;;;;;;6188960;28;20169;-81
2024/03/15 01:04:54;;;;;;;23.38;13.50;;;;;;;;;;6145640;28;20535;-81
2024/03/15 01:07:57;;;;;;;24.77;13.68;;;;;;;;;;6158348;28;20113;-81
2024/03/15 01:11:09;;;;;;;28.05;15.77;;;;;;;;;;6163342;28;20062;-81
2024/03/15 01:14:13;;;;;;;27.30;14.98;;;;;;;;;;6159215;28;20059;-81
2024/03/15 01:17:16;;;;;;;38.30;20.65;;;;;;;;;;6165288;28;20062;-81
2024/03/15 01:20:18;;;;;;;35.85;20.23;;;;;;;;;;6158405;28;20055;-81
2024/03/15 01:23:20;;;;;;;41.22;22.38;;;;;;;;;;6142642;28;20070;-81
2024/03/15 01:26:23;;;;;;;31.05;17.25;;;;;;;;;;6172903;28;20046;-82
2024/03/15 01:29:28;;;;;;;33.08;15.52;;;;;;;;;;6157835;28;20051;-81
2024/03/15 01:32:30;;;;;;;29.40;16.75;;;;;;;;;;6159562;28;20051;-82
2024/03/15 01:35:33;;;;;;;30.30;16.83;;;;;;;;;;6140908;28;20050;-82
2024/03/15 01:38:36;;;;;;;29.48;15.60;;;;;;;;;;6148066;28;21241;-82
2024/03/15 01:41:38;;;;;;;29.15;15.40;;;;;;;;;;6179678;28;20410;-82
2024/03/15 01:44:55;;;;;;;22.63;15.00;;;;;;;;;;6158676;28;20082;-82
2024/03/15 01:47:57;;;;;;;28.85;15.63;;;;;;;;;;6158081;28;20047;-82
2024/03/15 01:50:59;;;;;;;30.73;16.70;;;;;;;;;;6177757;28;20133;-80
2024/03/15 01:54:02;;;;;;;30.50;16.35;;;;;;;;;;6158531;28;20138;-81
2024/03/15 01:57:10;;;;;;;26.27;15.60;;;;;;;;;;6174949;28;20062;-81
2024/03/15 02:00:13;;;;;;;26.08;15.10;;;;;;;;;;6176814;28;20043;-81
2024/03/15 02:03:15;;;;;;;27.25;15.52;;;;;;;;;;6159057;28;20491;-82
2024/03/15 02:06:19;;;;;;;26.92;15.98;;;;;;;;;;6151740;28;20410;-81
2024/03/15 02:09:21;;;;;;;24.33;15.65;;;;;;;;;;6162281;28;20050;-82
2024/03/15 02:12:25;;;;;;;26.95;16.15;;;;;;;;;;6171981;28;20058;-81
2024/03/15 02:15:29;;;;;;;27.55;15.10;;;;;;;;;;6163233;28;20186;-81
2024/03/15 02:18:32;;;;;;;27.70;15.75;;;;;;;;;;6160142;28;20102;-81
2024/03/15 02:21:34;;;;;;;31.38;16.75;;;;;;;;;;6159846;28;20042;-81
2024/03/15 02:24:40;;;;;;;30.13;16.45;;;;;;;;;;6158155;28;20828;-81
2024/03/15 02:27:43;;;;;;;27.38;15.98;;;;;;;;;;6161285;28;20039;-82
2024/03/15 02:30:47;;;;;;;28.35;15.27;;;;;;;;;;6159410;28;20078;-81
2024/03/15 02:33:49;;;;;;;28.73;16.30;;;;;;;;;;6171711;28;20625;-82
2024/03/15 02:36:52;;;;;;;28.85;16.45;;;;;;;;;;6130005;28;20046;-82
2024/03/15 02:39:55;;;;;;;29.02;17.83;;;;;;;;;;6179599;28;20050;-81
2024/03/15 02:42:57;;;;;;;27.75;16.65;;;;;;;;;;6157476;28;20133;-81
2024/03/15 02:46:00;;;;;;;26.17;15.13;;;;;;;;;;6177824;28;20053;-82
2024/03/15 02:49:05;;;;;;;28.42;17.00;;;;;;;;;;6163816;28;20042;-83
2024/03/15 02:52:07;;;;;;;26.58;14.38;;;;;;;;;;6164175;28;20039;-83
2024/03/15 02:55:11;;;;;;;23.88;14.55;;;;;;;;;;6177910;28;20700;-83
2024/03/15 02:58:13;;;;;;;32.30;17.55;;;;;;;;;;6163666;28;20521;-82
2024/03/15 03:01:15;;;;;;;30.23;16.83;;;;;;;;;;6180722;28;20056;-83
2024/03/15 03:04:18;;;;;;;28.80;16.42;;;;;;;;;;6164982;28;20600;-82
2024/03/15 03:07:20;;;;;;;31.17;15.82;;;;;;;;;;6173628;28;20050;-82
2024/03/15 03:10:24;;;;;;;23.00;13.73;;;;;;;;;;6149887;28;20592;-82
2024/03/15 03:13:27;;;;;;;24.35;14.25;;;;;;;;;;6186870;28;20049;-82
2024/03/15 03:16:34;;;;;;;25.15;14.35;;;;;;;;;;6170283;28;20046;-82
2024/03/15 03:19:36;;;;;;;24.58;14.35;;;;;;;;;;6182612;28;20042;-82
2024/03/15 03:22:38;;;;;;;25.92;13.60;;;;;;;;;;6182395;28;20051;-82
2024/03/15 03:25:41;;;;;;;24.65;13.95;;;;;;;;;;6162232;28;20055;-82
2024/03/15 03:28:43;;;;;;;23.20;13.82;;;;;;;;;;6161100;28;20098;-81
2024/03/15 03:31:46;;;;;;;20.05;12.15;;;;;;;;;;6145814;28;20537;-81
2024/03/15 03:34:48;;;;;;;28.75;13.95;;;;;;;;;;6173007;28;20088;-81
2024/03/15 03:37:51;;;;;;;21.75;11.82;;;;;;;;;;6143488;28;20154;-82
2024/03/15 03:40:54;;;;;;;25.65;16.00;;;;;;;;;;6162713;28;20062;-81
2024/03/15 03:43:59;;;;;;;25.58;14.75;;;;;;;;;;6161941;28;20066;-82
2024/03/15 03:47:03;;;;;;;23.42;13.38;;;;;;;;;;6145134;28;20577;-82
2024/03/15 03:50:06;;;;;;;25.88;13.30;;;;;;;;;;6161155;28;20472;-82
2024/03/15 03:53:09;;;;;;;25.88;13.57;;;;;;;;;;6176261;28;20047;-82
2024/03/15 03:56:13;;;;;;;25.70;13.77;;;;;;;;;;6158500;28;20133;-82
2024/03/15 03:59:15;;;;;;;27.80;12.63;;;;;;;;;;6159737;28;20728;-82
2024/03/15 04:02:17;;;;;;;26.17;13.55;;;;;;;;;;6177763;28;20055;-82
2024/03/15 04:05:23;;;;;;;22.30;11.80;;;;;;;;;;6148110;28;20077;-82
2024/03/15 04:08:25;;;;;;;25.05;12.40;;;;;;;;;;6166025;28;20591;-82
2024/03/15 04:11:28;;;;;;;24.92;12.88;;;;;;;;;;6149412;28;20782;-82
2024/03/15 04:14:33;;;;;;;23.67;12.52;;;;;;;;;;6145809;28;20051;-82
2024/03/15 04:17:52;;;;;;;23.35;12.77;;;;;;;;;;6186856;28;20049;-82
2024/03/15 04:22:13;;;;;;;22.80;13.65;;;;;;;;;;6179967;28;20119;-82
2024/03/15 04:32:03;;;;;;;27.13;14.75;;;;;;;;;;6173836;28;20521;-82
2024/03/15 04:35:13;;;;;;;44.20;22.20;;;;;;;;;;6163478;28;20043;-81
2024/03/15 04:38:16;;;;;;;28.13;14.57;;;;;;;;;;6184611;28;20069;-82
2024/03/15 04:41:23;;;;;;;50.60;19.17;;;;;;;;;;6168418;28;20023;-82
2024/03/15 04:44:25;;;;;;;74.85;19.13;;;;;;;;;;6171375;28;20054;-82
2024/03/15 04:47:27;;;;;;;30.15;11.20;;;;;;;;;;6169491;28;20054;-82
2024/03/15 04:50:30;;;;;;;31.20;20.48;;;;;;;;;;6168333;28;20549;-83
2024/03/15 04:53:32;;;;;;;29.00;14.90;;;;;;;;;;6160219;28;20117;-82
2024/03/15 04:56:35;;;;;;;29.42;15.93;;;;;;;;;;6167496;28;20094;-83
2024/03/15 04:59:37;;;;;;;32.88;18.20;;;;;;;;;;6186324;28;20062;-82
2024/03/15 05:02:39;;;;;;;52.35;23.70;;;;;;;;;;6184773;28;20081;-82
2024/03/15 05:05:41;;;;;;;46.05;22.48;;;;;;;;;;6165451;28;20046;-83
2024/03/15 05:08:44;;;;;;;35.63;17.67;;;;;;;;;;6148516;28;20740;-84
2024/03/15 05:11:55;;;;;;;26.60;14.25;;;;;;;;;;6139398;28;20051;-84
2024/03/15 05:14:57;;;;;;;37.38;13.13;;;;;;;;;;6164644;28;20046;-82
2024/03/15 05:18:00;;;;;;;34.38;12.20;;;;;;;;;;6165452;28;20535;-83
2024/03/15 05:21:03;;;;;;;55.92;13.82;;;;;;;;;;6170747;28;20054;-82
2024/03/15 05:24:08;;;;;;;36.60;12.60;;;;;;;;;;6161352;28;20658;-83
2024/03/15 05:27:10;;;;;;;44.67;14.07;;;;;;;;;;6162487;28;20112;-82
2024/03/15 05:30:14;;;;;;;37.80;12.60;;;;;;;;;;6161063;28;20098;-83
2024/03/15 05:33:20;;;;;;;35.88;13.18;;;;;;;;;;6169696;28;20050;-82
2024/03/15 05:36:25;;;;;;;35.10;12.82;;;;;;;;;;6179089;28;20608;-82
2024/03/15 05:39:29;;;;;;;33.08;13.45;;;;;;;;;;6166744;28;20051;-85
2024/03/15 05:42:33;;;;;;;22.08;11.65;;;;;;;;;;6147170;28;20489;-82
2024/03/15 05:45:35;;;;;;;29.80;12.85;;;;;;;;;;6129438;28;20144;-82
2024/03/15 05:48:38;;;;;;;26.73;13.40;;;;;;;;;;6143597;28;20054;-82
2024/03/15 05:51:42;;;;;;;81.28;25.45;;;;;;;;;;6162759;28;20840;-82
2024/03/15 05:54:44;;;;;;;127.10;38.45;;;;;;;;;;6160119;28;20655;-83
2024/03/15 05:57:48;;;;;;;105.18;40.50;;;;;;;;;;6164364;28;20059;-82
2024/03/15 06:00:50;;;;;;;349.00;80.55;;;;;;;;;;6148065;28;20055;-83
2024/03/15 06:03:53;;;;;;;493.30;109.53;;;;;;;;;;6144279;28;20047;-82
2024/03/15 06:06:55;;;;;;;448.38;103.20;;;;;;;;;;6143118;28;20196;-83
2024/03/15 06:10:00;;;;;;;411.52;94.32;;;;;;;;;;6159681;28;20552;-82
2024/03/15 06:13:04;;;;;;;195.70;72.18;;;;;;;;;;6163469;28;20039;-82
2024/03/15 06:16:10;;;;;;;140.45;58.95;;;;;;;;;;6149869;28;20043;-81
2024/03/15 06:19:13;;;;;;;108.57;49.92;;;;;;;;;;6190465;28;20046;-82
2024/03/15 06:22:16;;;;;;;80.25;42.72;;;;;;;;;;6161095;28;20295;-82
2024/03/15 06:25:18;;;;;;;66.68;36.78;;;;;;;;;;6170706;28;20092;-83
2024/03/15 06:28:22;;;;;;;54.38;29.55;;;;;;;;;;6168428;28;20065;-82
2024/03/15 06:31:25;;;;;;;47.60;27.98;;;;;;;;;;6172038;28;20043;-83
2024/03/15 06:34:31;;;;;;;44.03;24.85;;;;;;;;;;6162386;28;20118;-82
2024/03/15 06:37:39;;;;;;;46.78;23.77;;;;;;;;;;6169257;28;20180;-82
2024/03/15 06:41:07;;;;;;;35.85;21.30;;;;;;;;;;6152709;28;20445;-82
2024/03/15 06:47:28;;;;;;;37.55;20.23;;;;;;;;;;6175156;28;20130;-83
2024/03/15 06:53:56;;;;;;;35.35;19.27;;;;;;;;;;6136802;28;20047;-84
2024/03/15 06:56:58;;;;;;;31.10;17.05;;;;;;;;;;6146811;28;20651;-84
2024/03/15 07:00:02;;;;;;;31.58;17.60;;;;;;;;;;6151281;28;20061;-83
2024/03/15 07:03:07;;;;;;;26.60;14.77;;;;;;;;;;6139368;28;20058;-83
2024/03/15 07:06:10;;;;;;;25.08;15.80;;;;;;;;;;6164779;28;20046;-84
2024/03/15 07:09:14;;;;;;;30.05;16.95;;;;;;;;;;6149485;28;20039;-83
2024/03/15 07:12:18;;;;;;;25.77;16.05;;;;;;;;;;6181910;28;20121;-83
2024/03/15 07:15:22;;;;;;;37.17;21.40;;;;;;;;;;6169511;28;20096;-83
2024/03/15 07:18:24;;;;;;;31.10;17.83;;;;;;;;;;6185647;28;20125;-83
2024/03/15 07:21:26;;;;;;;32.13;18.00;;;;;;;;;;6181999;28;20054;-83
2024/03/15 07:24:31;;;;;;;34.15;19.73;;;;;;;;;;6155159;28;20214;-83
2024/03/15 07:27:33;;;;;;;25.80;14.68;;;;;;;;;;6170575;28;20046;-83
2024/03/15 07:30:39;;;;;;;27.25;17.10;;;;;;;;;;6164157;28;20063;-82
2024/03/15 07:33:42;;;;;;;27.85;15.38;;;;;;;;;;6169798;28;20043;-82
2024/03/15 07:36:46;;;;;;;25.67;15.10;;;;;;;;;;6182586;28;20839;-82
2024/03/15 07:39:48;;;;;;;29.65;14.85;;;;;;;;;;6180619;28;20050;-82
2024/03/15 07:42:54;;;;;;;24.35;14.57;;;;;;;;;;6179127;28;20049;-83
2024/03/15 07:45:56;;;;;;;23.48;13.60;;;;;;;;;;6146621;28;20042;-82
2024/03/15 07:49:01;;;;;;;24.98;14.00;;;;;;;;;;6181452;28;20054;-83
2024/03/15 07:52:05;;;;;;;24.60;13.82;;;;;;;;;;6169920;28;20133;-83
2024/03/15 07:55:09;;;;;;;25.35;14.60;;;;;;;;;;6176408;28;20568;-83
2024/03/15 07:59:19;;;;;;;28.33;14.02;;;;;;;;;;6166723;28;20035;-83
2024/03/15 08:02:24;;;;;;;24.02;14.77;;;;;;;;;;6192520;28;20046;-82
2024/03/15 08:05:27;;;;;;;;;;;;;;;;;;6201722;28;20125;-83
2024/03/15 08:08:30;;;;;;;24.25;12.32;;;;;;;;;;6162366;28;20766;-83
2024/03/15 08:11:34;;;;;;;22.20;12.50;;;;;;;;;;6156735;28;20892;-83
2024/03/15 08:14:37;;;;;;;26.00;15.52;;;;;;;;;;6176049;28;20046;-82
2024/03/15 08:17:40;;;;;;;21.30;12.77;;;;;;;;;;6145111;28;20861;-83
2024/03/15 08:20:47;;;;;;;23.10;12.43;;;;;;;;;;6113053;28;20047;-84
2024/03/15 08:23:49;;;;;;;26.45;14.68;;;;;;;;;;6157874;28;20125;-83
2024/03/15 08:26:52;;;;;;;20.63;12.82;;;;;;;;;;6174893;28;20117;-84
2024/03/15 08:29:57;;;;;;;22.63;12.73;;;;;;;;;;6157966;28;20085;-83
2024/03/15 08:32:59;;;;;;;;;;;;;;;;;;6172816;28;20137;-83
2024/03/15 08:36:02;;;;;;;27.25;15.10;;;;;;;;;;6141202;28;20454;-82
2024/03/15 08:39:10;;;;;;;26.02;15.27;;;;;;;;;;6145559;28;20770;-82
2024/03/15 08:42:12;;;;;;;19.80;11.45;;;;;;;;;;6151791;28;20050;-83
2024/03/15 08:45:15;;;;;;;23.13;12.82;;;;;;;;;;6171776;28;20114;-82
2024/03/15 08:48:17;;;;;;;25.50;11.77;;;;;;;;;;6143349;28;20055;-82
2024/03/15 08:51:22;;;;;;;19.25;11.77;;;;;;;;;;6165580;28;20134;-82
2024/03/15 08:54:24;;;;;;;19.27;10.75;;;;;;;;;;6142031;28;20043;-82
2024/03/15 08:57:27;;;;;;;27.17;15.68;;;;;;;;;;6161484;28;20566;-82
2024/03/15 09:00:29;;;;;;;20.73;12.98;;;;;;;;;;6174084;28;20046;-81
2024/03/15 09:03:33;;;;;;;22.67;12.07;;;;;;;;;;6157737;28;20138;-82
2024/03/15 09:06:41;;;;;;;23.83;13.00;;;;;;;;;;6156544;28;20066;-82
2024/03/15 09:09:44;;;;;;;27.25;14.15;;;;;;;;;;6157958;28;20066;-82
2024/03/15 09:12:46;;;;;;;32.97;14.68;;;;;;;;;;6165533;28;20047;-81
2024/03/15 09:15:49;;;;;;;27.60;16.38;;;;;;;;;;6154781;28;20047;-82
2024/03/15 09:18:52;;;;;;;24.02;13.73;;;;;;;;;;6142752;28;20269;-83
2024/03/15 09:21:59;;;;;;;24.13;12.82;;;;;;;;;;6160548;28;20061;-82
2024/03/15 09:25:02;;;;;;;27.70;15.93;;;;;;;;;;6158767;28;20047;-82
2024/03/15 09:28:07;;;;;;;24.25;12.98;;;;;;;;;;6161966;28;20137;-82
2024/03/15 09:31:10;;;;;;;27.25;14.20;;;;;;;;;;6159715;28;20050;-82
2024/03/15 09:34:33;;;;;;;30.00;13.48;;;;;;;;;;6167543;28;20441;-83
2024/03/15 09:37:46;;;;;;;23.80;13.27;;;;;;;;;;6156641;28;20603;-83
2024/03/15 09:40:56;;;;;;;21.92;14.40;;;;;;;;;;6170850;28;20133;-83
2024/03/15 09:43:59;;;;;;;23.60;13.88;;;;;;;;;;6181253;28;20071;-82
2024/03/15 09:47:04;;;;;;;22.45;13.35;;;;;;;;;;6158678;28;20104;-82
2024/03/15 09:50:52;;;;;;;24.48;13.13;;;;;;;;;;6164334;28;20555;-82
2024/03/15 09:54:37;;;;;;;24.73;15.60;;;;;;;;;;6165528;28;20046;-83
2024/03/15 09:57:51;;;;;;;24.40;12.23;;;;;;;;;;6193005;28;20540;-82
2024/03/15 10:01:33;;;;;;;23.15;14.00;;;;;;;;;;6156496;28;20464;-83
2024/03/15 10:09:24;;;;;;;20.60;11.57;;;;;;;;;;6181028;28;20035;-82
2024/03/15 10:12:28;;;;;;;28.08;16.30;;;;;;;;;;6159029;28;20155;-84
2024/03/15 10:15:30;;;;;;;25.83;14.95;;;;;;;;;;6195244;28;20035;-84
2024/03/15 10:18:37;;;;;;;27.67;14.15;;;;;;;;;;6196440;28;20039;-83
2024/03/15 10:21:41;;;;;;;23.10;12.98;;;;;;;;;;6214843;28;20066;-85
2024/03/15 10:24:44;;;;;;;25.38;13.18;;;;;;;;;;6196788;28;20138;-83
2024/03/15 10:27:55;;;;;;;29.63;14.40;;;;;;;;;;6181055;28;20051;-83
2024/03/15 10:30:58;;;;;;;23.05;13.82;;;;;;;;;;6189348;28;20047;-83
2024/03/15 10:34:01;;;;;;;23.98;14.27;;;;;;;;;;6170800;28;20050;-84
2024/03/15 10:37:06;;;;;;;25.05;14.68;;;;;;;;;;6151598;28;20529;-84
2024/03/15 10:40:13;;;;;;;24.95;12.93;;;;;;;;;;6148829;28;20667;-83
2024/03/15 10:43:16;;;;;;;22.70;14.20;;;;;;;;;;6154642;28;20043;-83
2024/03/15 10:46:18;;;;;;;25.10;13.20;;;;;;;;;;6156360;28;20164;-83
2024/03/15 10:49:22;;;;;;;19.90;11.27;;;;;;;;;;6162040;28;20054;-83
2024/03/15 10:52:26;;;;;;;24.15;12.85;;;;;;;;;;6143266;28;20051;-83
2024/03/15 10:55:29;;;;;;;23.80;13.30;;;;;;;;;;6144697;28;20051;-82
2024/03/15 10:58:32;;;;;;;22.60;13.95;;;;;;;;;;6148132;28;20447;-82
2024/03/15 11:01:35;;;;;;;22.92;13.48;;;;;;;;;;6163232;28;20047;-83
2024/03/15 11:04:39;;;;;;;21.75;12.43;;;;;;;;;;6162489;28;20217;-82
2024/03/15 11:07:43;;;;;;;20.50;12.48;;;;;;;;;;6160426;28;20047;-82
2024/03/15 11:11:05;;;;;;;23.23;11.75;;;;;;;;;;6178825;28;20112;-83
2024/03/15 11:14:14;;;;;;;18.30;10.40;;;;;;;;;;6164184;28;20035;-84
2024/03/15 11:17:17;;;;;;;17.08;9.63;;;;;;;;;;6171165;28;20108;-84
2024/03/15 11:20:24;;;;;;;17.70;10.40;;;;;;;;;;6168168;28;20092;-83
2024/03/15 11:23:27;;;;;;;15.75;9.85;;;;;;;;;;6166137;28;20053;-82
2024/03/15 11:26:32;;;;;;;;;;;;;;;;;;6168293;28;20049;-83
2024/03/15 11:29:37;;;;;;;22.48;10.65;;;;;;;;;;6160550;28;19926;-83
2024/03/15 11:32:42;;;;;;;15.63;8.98;;;;;;;;;;6158986;28;20050;-83
2024/03/15 11:35:45;;;;;;;14.90;8.75;;;;;;;;;;6147196;28;20057;-82
2024/03/15 11:38:49;;;;;;;15.18;8.95;;;;;;;;;;6157204;28;20066;-82
2024/03/15 11:41:52;;;;;;;74.32;35.25;;;;;;;;;;6159959;28;20380;-83
2024/03/15 11:44:55;;;;;;;13.98;9.18;;;;;;;;;;6174212;28;20050;-81
2024/03/15 11:47:57;;;;;;;14.50;10.00;;;;;;;;;;6163552;28;20054;-83
2024/03/15 11:51:02;;;;;;;13.15;8.23;;;;;;;;;;6160968;28;20806;-84
2024/03/15 11:54:16;;;;;;;13.43;8.93;;;;;;;;;;6159524;28;20521;-83
2024/03/15 11:57:19;;;;;;;15.95;6.85;;;;;;;;;;6176705;28;20524;-83
2024/03/15 12:00:24;;;;;;;11.07;6.82;;;;;;;;;;6162650;28;20062;-83
2024/03/15 12:03:30;;;;;;;12.18;7.63;;;;;;;;;;6157173;28;20046;-83
2024/03/15 12:06:36;;;;;;;12.52;7.50;;;;;;;;;;6157308;28;20124;-83
2024/03/15 12:09:43;;;;;;;13.18;8.13;;;;;;;;;;6148589;28;20050;-83
2024/03/15 12:13:20;;;;;;;12.05;7.53;;;;;;;;;;6191189;28;20074;-83
2024/03/15 12:16:24;;;;;;;11.10;8.07;;;;;;;;;;6200085;28;20074;-83
2024/03/15 12:19:27;;;;;;;13.88;7.97;;;;;;;;;;6184375;28;20039;-81
2024/03/15 12:22:29;;;;;;;12.38;7.20;;;;;;;;;;6161067;28;20049;-84
2024/03/15 12:25:32;;;;;;;12.68;7.72;;;;;;;;;;6159149;28;20448;-84
2024/03/15 12:28:35;;;;;;;15.45;8.48;;;;;;;;;;6133401;28;20053;-84
2024/03/15 12:31:40;;;;;;;14.70;8.50;;;;;;;;;;6159118;28;20640;-84
2024/03/15 12:34:43;;;;;;;13.55;9.10;;;;;;;;;;6159647;28;20054;-83
2024/03/15 12:37:45;;;;;;;20.30;10.70;;;;;;;;;;6157735;28;20130;-83
2024/03/15 12:40:48;;;;;;;14.10;9.20;;;;;;;;;;6161142;28;20046;-83
2024/03/15 12:43:51;;;;;;;12.43;7.78;;;;;;;;;;6163316;28;20065;-83
2024/03/15 12:46:54;;;;;;;17.45;11.55;;;;;;;;;;6160202;28;20210;-83
2024/03/15 12:49:57;;;;;;;18.45;11.77;;;;;;;;;;6159299;28;20452;-82
2024/03/15 12:53:01;;;;;;;13.38;8.75;;;;;;;;;;6165411;28;20887;-83
2024/03/15 12:56:04;;;;;;;12.07;8.75;;;;;;;;;;6158799;28;20057;-83
2024/03/15 12:59:06;;;;;;;12.75;7.65;;;;;;;;;;6165948;28;20592;-83
2024/03/15 13:02:09;;;;;;;11.15;6.88;;;;;;;;;;6156491;28;20061;-85
2024/03/15 13:05:18;;;;;;;16.05;11.40;;;;;;;;;;6160441;28;20050;-83
2024/03/15 13:08:20;;;;;;;14.65;10.27;;;;;;;;;;6168190;28;20085;-82
2024/03/15 13:11:23;;;;;;;19.17;11.95;;;;;;;;;;6171218;28;20053;-83
2024/03/15 13:14:25;;;;;;;15.07;8.88;;;;;;;;;;6155355;28;20032;-83
2024/03/15 13:17:28;;;;;;;16.52;9.88;;;;;;;;;;6158557;28;20062;-83
2024/03/15 13:20:32;;;;;;;13.60;8.45;;;;;;;;;;6144207;28;20058;-83
2024/03/15 13:23:34;;;;;;;14.30;8.88;;;;;;;;;;6126597;28;20046;-82
2024/03/15 13:26:36;;;;;;;16.73;10.60;;;;;;;;;;6140655;28;20054;-82
2024/03/15 13:29:41;;;;;;;13.23;9.02;;;;;;;;;;6172332;28;20602;-82
2024/03/15 13:32:44;;;;;;;15.10;9.50;;;;;;;;;;6156254;28;20988;-82
2024/03/15 13:35:46;;;;;;;19.10;11.57;;;;;;;;;;6111456;28;20102;-82
2024/03/15 13:38:49;;;;;;;17.83;12.57;;;;;;;;;;6156918;28;20070;-82
2024/03/15 13:41:57;;;;;;;19.80;13.88;;;;;;;;;;6140985;28;20051;-83
2024/03/15 13:45:00;;;;;;;20.40;12.02;;;;;;;;;;6156318;28;20043;-83
2024/03/15 13:48:08;;;;;;;15.40;10.85;;;;;;;;;;6143791;28;20043;-83
2024/03/15 13:51:12;;;;;;;18.65;11.20;;;;;;;;;;6162177;28;20109;-82
2024/03/15 13:54:15;;;;;;;17.77;12.52;;;;;;;;;;6156136;28;20494;-82
2024/03/15 13:57:20;;;;;;;19.30;12.13;;;;;;;;;;6156898;28;20414;-82
2024/03/15 14:00:34;;;;;;;23.13;13.35;;;;;;;;;;6158171;28;20047;-82
2024/03/15 14:03:38;;;;;;;14.27;9.73;;;;;;;;;;6139488;28;20074;-82
2024/03/15 14:06:42;;;;;;;18.70;11.18;;;;;;;;;;6142897;28;20047;-82
2024/03/15 14:09:45;;;;;;;21.05;13.30;;;;;;;;;;6146142;28;20147;-82
2024/03/15 14:12:49;;;;;;;36.05;19.58;;;;;;;;;;6158169;28;20051;-81
2024/03/15 14:15:51;;;;;;;26.20;16.40;;;;;;;;;;6158284;28;20445;-81
2024/03/15 14:18:54;;;;;;;22.58;14.90;;;;;;;;;;6133313;28;20518;-81
2024/03/15 14:22:01;;;;;;;18.95;12.38;;;;;;;;;;6161290;28;20070;-81
2024/03/15 14:25:05;;;;;;;12.07;8.00;;;;;;;;;;6163191;28;20067;-81
2024/03/15 14:28:07;;;;;;;19.42;13.40;;;;;;;;;;6169906;28;20440;-82
2024/03/15 14:31:11;;;;;;;23.88;14.00;;;;;;;;;;6171068;28;20058;-81
2024/03/15 14:34:18;;;;;;;10.13;6.60;;;;;;;;;;6210835;28;20043;-82
2024/03/15 14:37:21;;;;;;;15.05;8.82;;;;;;;;;;6201180;28;20031;-81
2024/03/15 14:40:25;;;;;;;13.57;7.85;;;;;;;;;;6173437;28;20547;-81
2024/03/15 14:43:30;;;;;;;;;;;;;;;;;;6170024;28;20051;-80
2024/03/15 14:46:35;;;;;;;12.57;7.53;;;;;;;;;;6184651;28;19930;-82
2024/03/15 14:49:37;;;;;;;17.02;10.32;;;;;;;;;;6167381;28;20067;-81
2024/03/15 14:52:40;;;;;;;19.42;13.35;;;;;;;;;;6176939;28;20065;-81
2024/03/15 14:55:42;;;;;;;32.25;20.17;;;;;;;;;;6165679;28;20070;-81
2024/03/15 14:58:45;;;;;;;15.48;9.23;;;;;;;;;;6169808;28;20054;-82
2024/03/15 15:01:47;;;;;;;15.88;12.07;;;;;;;;;;6188904;28;20065;-81
2024/03/15 15:04:51;;;;;;;15.32;8.95;;;;;;;;;;6174888;28;20047;-81
2024/03/15 15:08:00;;;;;;;12.88;6.93;;;;;;;;;;6169280;28;20596;-81
2024/03/15 15:11:05;;;;;;;12.40;8.95;;;;;;;;;;6170929;28;20051;-82
2024/03/15 15:14:09;;;;;;;12.00;8.07;;;;;;;;;;6172361;28;20054;-82
2024/03/15 15:17:14;;;;;;;11.30;8.05;;;;;;;;;;6164600;28;20058;-82
2024/03/15 15:20:18;;;;;;;11.23;7.15;;;;;;;;;;6178737;28;20587;-83
2024/03/15 15:23:24;;;;;;;12.02;7.82;;;;;;;;;;6168599;28;20073;-83
2024/03/15 15:26:27;;;;;;;11.65;7.53;;;;;;;;;;6174430;28;20638;-82
2024/03/15 15:29:30;;;;;;;15.63;9.35;;;;;;;;;;6166548;28;20057;-82
2024/03/15 15:32:33;;;;;;;13.85;9.07;;;;;;;;;;6165359;28;20050;-83
2024/03/15 15:35:35;;;;;;;13.63;7.53;;;;;;;;;;6164845;28;20051;-82
2024/03/15 15:38:39;;;;;;;17.38;10.73;;;;;;;;;;6161775;28;20141;-83
2024/03/15 15:41:42;;;;;;;16.15;10.63;;;;;;;;;;6165701;28;20532;-82
2024/03/15 15:44:44;;;;;;;22.67;9.77;;;;;;;;;;6163219;28;20607;-82
2024/03/15 15:47:47;;;;;;;12.32;7.50;;;;;;;;;;6163174;28;20122;-82
2024/03/15 15:50:49;;;;;;;26.58;14.05;;;;;;;;;;6163209;28;20050;-83
2024/03/15 15:53:52;;;;;;;22.40;12.63;;;;;;;;;;6159019;28;20131;-82
2024/03/15 15:56:54;;;;;;;20.05;10.30;;;;;;;;;;6166276;28;20043;-82
2024/03/15 15:59:58;;;;;;;25.38;10.77;;;;;;;;;;6177517;28;20149;-81
2024/03/15 16:03:01;;;;;;;19.35;11.15;;;;;;;;;;6162922;28;20046;-81
2024/03/15 16:06:07;;;;;;;27.85;14.93;;;;;;;;;;6143051;28;20047;-81
2024/03/15 16:09:17;;;;;;;10.52;6.53;;;;;;;;;;6180141;28;20112;-81
2024/03/15 16:12:20;;;;;;;9.95;7.18;;;;;;;;;;6161368;28;20046;-82
2024/03/15 16:15:22;;;;;;;9.88;7.25;;;;;;;;;;6159244;28;20047;-82
2024/03/15 16:18:25;;;;;;;8.63;5.40;;;;;;;;;;6179752;28;20050;-82
2024/03/15 16:21:27;;;;;;;9.55;5.97;;;;;;;;;;6176526;28;20082;-80
2024/03/15 16:24:30;;;;;;;9.32;5.57;;;;;;;;;;6163100;28;20042;-82
2024/03/15 16:27:33;;;;;;;9.48;5.38;;;;;;;;;;6145467;28;20108;-81
2024/03/15 16:30:37;;;;;;;9.43;5.18;;;;;;;;;;6162751;28;20066;-80
2024/03/15 16:33:41;;;;;;;24.80;13.27;;;;;;;;;;6164275;28;20060;-82
2024/03/15 16:36:43;;;;;;;13.15;6.10;;;;;;;;;;6184354;28;20129;-83
2024/03/15 16:39:46;;;;;;;15.05;6.35;;;;;;;;;;6168320;28;20061;-81
2024/03/15 16:42:49;;;;;;;12.30;7.57;;;;;;;;;;6163769;28;20088;-81
2024/03/15 16:45:51;;;;;;;12.38;6.15;;;;;;;;;;6174675;28;20119;-80
2024/03/15 16:48:53;;;;;;;10.55;6.97;;;;;;;;;;6161823;28;20047;-80
2024/03/15 16:51:58;;;;;;;10.88;6.57;;;;;;;;;;6165720;28;20525;-81
2024/03/15 16:55:00;;;;;;;10.90;5.70;;;;;;;;;;6171937;28;20082;-82
2024/03/15 16:58:06;;;;;;;12.63;6.20;;;;;;;;;;6194735;28;20031;-80
2024/03/15 17:01:11;;;;;;;14.02;8.85;;;;;;;;;;6212277;28;20042;-82
2024/03/15 17:04:13;;;;;;;;;;;;;;;;;;6191808;28;20043;-82
2024/03/15 17:07:16;;;;;;;10.75;6.68;;;;;;;;;;6159455;28;19930;-81
2024/03/15 17:10:18;;;;;;;20.60;9.88;;;;;;;;;;6161157;28;20116;-81
2024/03/15 17:13:24;;;;;;;27.60;9.88;;;;;;;;;;6158294;28;20058;-82
2024/03/15 17:16:26;;;;;;;38.25;14.30;;;;;;;;;;6174361;28;20038;-82
2024/03/15 17:19:29;;;;;;;29.02;11.07;;;;;;;;;;6160124;28;20527;-83
2024/03/15 17:22:33;;;;;;;20.95;9.35;;;;;;;;;;6156381;28;20476;-82
2024/03/15 17:25:35;;;;;;;16.77;8.40;;;;;;;;;;6157541;28;20178;-86
2024/03/15 17:28:37;;;;;;;15.05;7.18;;;;;;;;;;6159115;28;20054;-83
2024/03/15 17:31:41;;;;;;;18.20;10.00;;;;;;;;;;6155339;28;20793;-82
2024/03/15 17:34:43;;;;;;;40.22;19.08;;;;;;;;;;6160063;28;20519;-82
2024/03/15 17:37:45;;;;;;;44.08;18.05;;;;;;;;;;6155873;28;20051;-82
2024/03/15 17:40:49;;;;;;;37.17;19.38;;;;;;;;;;6126285;28;20050;-83
2024/03/15 17:43:51;;;;;;;52.45;18.40;;;;;;;;;;6154738;28;20414;-83
2024/03/15 17:46:53;;;;;;;50.00;22.67;;;;;;;;;;6156366;28;20043;-83
2024/03/15 17:49:55;;;;;;;30.58;15.52;;;;;;;;;;6155745;28;20058;-83
2024/03/15 17:52:58;;;;;;;15.85;9.38;;;;;;;;;;6170600;28;20100;-83
2024/03/15 17:56:01;;;;;;;19.52;10.35;;;;;;;;;;6157576;28;20047;-82
2024/03/15 17:59:03;;;;;;;13.57;8.77;;;;;;;;;;6154550;28;20564;-84
2024/03/15 18:02:07;;;;;;;15.07;10.63;;;;;;;;;;6172535;28;20051;-83
2024/03/15 18:05:12;;;;;;;12.43;8.25;;;;;;;;;;6158137;28;20054;-83
2024/03/15 18:08:14;;;;;;;13.50;7.28;;;;;;;;;;6163120;28;20047;-82
2024/03/15 18:11:18;;;;;;;16.13;11.35;;;;;;;;;;6178427;28;20108;-82
2024/03/15 18:14:22;;;;;;;20.88;13.43;;;;;;;;;;6164073;28;20220;-83
2024/03/15 18:17:25;;;;;;;28.33;17.10;;;;;;;;;;6162870;28;20043;-83